createdAt,value
2018-01-13T00:00:06.227Z,0
2018-01-13T00:01:05.990Z,0
2018-01-13T00:02:06.556Z,0
2018-01-13T00:03:06.033Z,0
2018-01-13T00:04:06.284Z,0
2018-01-13T00:05:06.606Z,0
2018-01-13T00:06:06.315Z,0
2018-01-13T00:07:06.370Z,0
2018-01-13T00:08:06.648Z,0
2018-01-13T00:09:06.377Z,0
2018-01-13T00:10:06.387Z,0
2018-01-13T00:11:06.676Z,0
2018-01-13T00:12:06.426Z,0
2018-01-13T00:13:06.461Z,0
2018-01-13T00:14:06.438Z,0
2018-01-13T00:15:06.214Z,0
2018-01-13T00:16:06.239Z,0
2018-01-13T00:17:06.793Z,0
2018-01-13T00:18:06.753Z,0
2018-01-13T00:19:06.547Z,0
2018-01-13T00:20:06.286Z,0
2018-01-13T00:21:06.569Z,0
2018-01-13T00:22:06.308Z,0
2018-01-13T00:23:06.578Z,0
2018-01-13T00:24:06.338Z,0
2018-01-13T00:25:06.351Z,0
2018-01-13T00:26:06.886Z,0
2018-01-13T00:27:06.378Z,0
2018-01-13T00:28:06.651Z,0
2018-01-13T00:29:06.660Z,0
2018-01-13T00:30:06.681Z,0
2018-01-13T00:31:06.942Z,0
2018-01-13T00:32:06.507Z,0
2018-01-13T00:33:06.725Z,0
2018-01-13T00:34:06.236Z,0
2018-01-13T00:35:06.756Z,0
2018-01-13T00:36:06.773Z,0
2018-01-13T00:37:06.782Z,0
2018-01-13T00:38:07.052Z,0
2018-01-13T00:39:06.562Z,0
2018-01-13T00:40:06.853Z,0
2018-01-13T00:41:06.843Z,0
2018-01-13T00:42:06.878Z,0
2018-01-13T00:43:06.875Z,0
2018-01-13T00:44:06.889Z,0
2018-01-13T00:45:06.942Z,0
2018-01-13T00:46:07.186Z,0
2018-01-13T00:47:06.733Z,0
2018-01-13T00:48:06.947Z,0
2018-01-13T00:49:06.966Z,0
2018-01-13T00:50:06.977Z,0
2018-01-13T00:51:07.251Z,0
2018-01-13T00:52:07.009Z,0
2018-01-13T00:53:06.769Z,0
2018-01-13T00:54:06.801Z,0
2018-01-13T00:55:07.053Z,0
2018-01-13T00:56:07.078Z,0
2018-01-13T00:57:06.837Z,0
2018-01-13T00:58:07.373Z,0
2018-01-13T00:59:06.616Z,0
2018-01-13T01:00:07.135Z,0
2018-01-13T01:01:07.151Z,0
2018-01-13T01:02:06.709Z,0
2018-01-13T01:03:06.934Z,0
2018-01-13T01:04:07.188Z,0
2018-01-13T01:05:07.201Z,0
2018-01-13T01:06:06.984Z,0
2018-01-13T01:07:07.237Z,0
2018-01-13T01:08:07.251Z,0
2018-01-13T01:09:07.263Z,0
2018-01-13T01:10:07.293Z,0
2018-01-13T01:11:07.044Z,0
2018-01-13T01:12:07.055Z,0
2018-01-13T01:13:07.603Z,0
2018-01-13T01:14:07.354Z,0
2018-01-13T01:15:07.363Z,0
2018-01-13T01:16:07.380Z,0
2018-01-13T01:17:07.186Z,0
2018-01-13T01:18:07.402Z,0
2018-01-13T01:19:07.170Z,0
2018-01-13T01:20:07.443Z,0
2018-01-13T01:21:07.190Z,0
2018-01-13T01:22:07.209Z,0
2018-01-13T01:23:07.226Z,0
2018-01-13T01:24:07.743Z,0
2018-01-13T01:25:07.253Z,0
2018-01-13T01:26:07.271Z,0
2018-01-13T01:27:07.287Z,0
2018-01-13T01:28:07.300Z,0
2018-01-13T01:29:07.332Z,0
2018-01-13T01:30:07.839Z,0
2018-01-13T01:31:07.362Z,0
2018-01-13T01:32:07.663Z,0
2018-01-13T01:33:07.877Z,0
2018-01-13T01:34:07.136Z,0
2018-01-13T01:35:07.665Z,0
2018-01-13T01:36:07.670Z,0
2018-01-13T01:37:07.456Z,0
2018-01-13T01:38:07.705Z,0
2018-01-13T01:39:07.717Z,0
2018-01-13T01:40:07.742Z,0
2018-01-13T01:41:07.994Z,0
2018-01-13T01:42:07.755Z,0
2018-01-13T01:43:07.780Z,0
2018-01-13T01:44:07.288Z,0
2018-01-13T01:45:07.571Z,0
2018-01-13T01:46:07.827Z,0
2018-01-13T01:47:07.740Z,0
2018-01-13T01:48:07.600Z,0
2018-01-13T01:49:07.639Z,0
2018-01-13T01:50:07.388Z,0
2018-01-13T01:51:07.646Z,0
2018-01-13T01:52:07.660Z,0
2018-01-13T01:53:07.972Z,0
2018-01-13T01:54:07.693Z,0
2018-01-13T01:55:08.205Z,0
2018-01-13T01:56:07.971Z,0
2018-01-13T01:57:08.230Z,0
2018-01-13T01:58:07.495Z,0
2018-01-13T01:59:08.019Z,0
2018-01-13T02:00:08.033Z,0
2018-01-13T02:01:08.047Z,0
2018-01-13T02:02:07.611Z,0
2018-01-13T02:03:08.078Z,0
2018-01-13T02:04:08.092Z,0
2018-01-13T02:05:08.370Z,0
2018-01-13T02:06:07.618Z,0
2018-01-13T02:07:08.139Z,0
2018-01-13T02:08:08.153Z,0
2018-01-13T02:09:07.915Z,0
2018-01-13T02:10:07.682Z,0
2018-01-13T02:11:07.698Z,0
2018-01-13T02:12:07.964Z,0
2018-01-13T02:13:08.231Z,0
2018-01-13T02:14:08.500Z,0
2018-01-13T02:15:08.262Z,0
2018-01-13T02:16:08.292Z,0
2018-01-13T02:17:08.352Z,0
2018-01-13T02:18:08.309Z,0
2018-01-13T02:19:08.323Z,0
2018-01-13T02:20:08.337Z,0
2018-01-13T02:21:08.598Z,0
2018-01-13T02:22:08.715Z,0
2018-01-13T02:23:08.382Z,0
2018-01-13T02:24:07.893Z,0
2018-01-13T02:25:08.162Z,0
2018-01-13T02:26:08.173Z,0
2018-01-13T02:27:08.442Z,0
2018-01-13T02:28:08.199Z,0
2018-01-13T02:29:08.469Z,0
2018-01-13T02:30:08.492Z,0
2018-01-13T02:31:08.770Z,0
2018-01-13T02:32:08.560Z,0
2018-01-13T02:33:08.017Z,0
2018-01-13T02:34:08.540Z,0
2018-01-13T02:35:08.559Z,0
2018-01-13T02:36:08.826Z,0
2018-01-13T02:37:08.838Z,0
2018-01-13T02:38:08.609Z,0
2018-01-13T02:39:08.566Z,0
2018-01-13T02:40:08.382Z,0
2018-01-13T02:41:08.651Z,0
2018-01-13T02:42:08.916Z,0
2018-01-13T02:43:08.679Z,0
2018-01-13T02:44:08.788Z,0
2018-01-13T02:45:08.709Z,0
2018-01-13T02:46:08.471Z,0
2018-01-13T02:47:08.480Z,0
2018-01-13T02:48:09.001Z,0
2018-01-13T02:49:08.609Z,0
2018-01-13T02:50:09.032Z,0
2018-01-13T02:51:08.288Z,0
2018-01-13T02:52:09.072Z,0
2018-01-13T02:53:08.570Z,0
2018-01-13T02:54:08.834Z,0
2018-01-13T02:55:08.606Z,0
2018-01-13T02:56:08.869Z,0
2018-01-13T02:57:09.159Z,0
2018-01-13T02:58:08.644Z,0
2018-01-13T02:59:08.910Z,0
2018-01-13T03:00:08.677Z,0
2018-01-13T03:01:08.938Z,0
2018-01-13T03:02:08.959Z,0
2018-01-13T03:03:08.724Z,0
2018-01-13T03:04:09.033Z,0
2018-01-13T03:05:08.756Z,0
2018-01-13T03:06:08.507Z,0
2018-01-13T03:07:08.774Z,0
2018-01-13T03:08:08.793Z,0
2018-01-13T03:09:09.330Z,0
2018-01-13T03:10:08.823Z,0
2018-01-13T03:11:09.092Z,0
2018-01-13T03:12:09.104Z,0
2018-01-13T03:13:08.881Z,0
2018-01-13T03:14:09.129Z,0
2018-01-13T03:15:09.149Z,0
2018-01-13T03:16:09.419Z,0
2018-01-13T03:17:08.942Z,0
2018-01-13T03:18:08.940Z,0
2018-01-13T03:19:09.010Z,0
2018-01-13T03:20:09.267Z,0
2018-01-13T03:21:09.229Z,0
2018-01-13T03:22:09.004Z,0
2018-01-13T03:23:09.265Z,0
2018-01-13T03:24:09.030Z,0
2018-01-13T03:25:09.050Z,0
2018-01-13T03:26:09.326Z,0
2018-01-13T03:27:09.340Z,0
2018-01-13T03:28:09.607Z,0
2018-01-13T03:29:09.364Z,0
2018-01-13T03:30:09.644Z,0
2018-01-13T03:31:09.140Z,0
2018-01-13T03:32:09.401Z,0
2018-01-13T03:33:09.674Z,0
2018-01-13T03:34:09.231Z,0
2018-01-13T03:35:09.192Z,0
2018-01-13T03:36:09.461Z,0
2018-01-13T03:37:09.225Z,0
2018-01-13T03:38:09.250Z,0
2018-01-13T03:39:09.352Z,0
2018-01-13T03:40:09.518Z,0
2018-01-13T03:41:09.284Z,0
2018-01-13T03:42:09.549Z,0
2018-01-13T03:43:09.311Z,0
2018-01-13T03:44:09.077Z,0
2018-01-13T03:45:09.594Z,0
2018-01-13T03:46:09.615Z,0
2018-01-13T03:47:09.369Z,0
2018-01-13T03:48:09.885Z,0
2018-01-13T03:49:09.460Z,0
2018-01-13T03:50:09.664Z,0
2018-01-13T03:51:09.681Z,0
2018-01-13T03:52:09.699Z,0
2018-01-13T03:53:09.974Z,0
2018-01-13T03:54:09.721Z,0
2018-01-13T03:55:09.744Z,0
2018-01-13T03:56:09.780Z,0
2018-01-13T03:57:09.768Z,0
2018-01-13T03:58:09.782Z,0
2018-01-13T03:59:09.548Z,0
2018-01-13T04:00:09.559Z,0
2018-01-13T04:01:09.823Z,0
2018-01-13T04:02:09.592Z,0
2018-01-13T04:03:09.854Z,0
2018-01-13T04:04:11.026Z,0
2018-01-13T04:05:09.904Z,0
2018-01-13T04:06:09.898Z,0
2018-01-13T04:07:10.170Z,0
2018-01-13T04:08:09.746Z,0
2018-01-13T04:09:09.939Z,0
2018-01-13T04:10:09.709Z,0
2018-01-13T04:11:09.726Z,0
2018-01-13T04:12:09.981Z,0
2018-01-13T04:13:09.998Z,0
2018-01-13T04:14:09.762Z,0
2018-01-13T04:15:10.039Z,0
2018-01-13T04:16:10.050Z,0
2018-01-13T04:17:10.061Z,0
2018-01-13T04:18:10.080Z,0
2018-01-13T04:19:10.136Z,0
2018-01-13T04:20:09.850Z,0
2018-01-13T04:21:09.615Z,0
2018-01-13T04:22:10.392Z,0
2018-01-13T04:23:10.145Z,0
2018-01-13T04:24:10.416Z,0
2018-01-13T04:25:09.943Z,0
2018-01-13T04:26:10.194Z,0
2018-01-13T04:27:09.955Z,0
2018-01-13T04:28:10.224Z,0
2018-01-13T04:29:09.983Z,0
2018-01-13T04:30:10.249Z,0
2018-01-13T04:31:10.012Z,0
2018-01-13T04:32:10.024Z,0
2018-01-13T04:33:10.036Z,0
2018-01-13T04:34:10.573Z,0
2018-01-13T04:35:10.075Z,0
2018-01-13T04:36:10.136Z,0
2018-01-13T04:37:10.349Z,0
2018-01-13T04:38:10.366Z,0
2018-01-13T04:39:10.127Z,0
2018-01-13T04:40:10.156Z,0
2018-01-13T04:41:10.005Z,0
2018-01-13T04:42:10.681Z,0
2018-01-13T04:43:10.440Z,0
2018-01-13T04:44:10.461Z,0
2018-01-13T04:45:10.468Z,0
2018-01-13T04:46:10.503Z,0
2018-01-13T04:47:10.748Z,0
2018-01-13T04:48:10.260Z,0
2018-01-13T04:49:10.534Z,0
2018-01-13T04:50:10.795Z,0
2018-01-13T04:51:10.363Z,0
2018-01-13T04:52:10.071Z,0
2018-01-13T04:53:10.584Z,0
2018-01-13T04:54:10.360Z,0
2018-01-13T04:55:10.111Z,0
2018-01-13T04:56:10.636Z,0
2018-01-13T04:57:10.641Z,0
2018-01-13T04:58:10.660Z,0
2018-01-13T04:59:10.424Z,0
2018-01-13T05:00:10.437Z,0
2018-01-13T05:01:10.705Z,0
2018-01-13T05:02:10.729Z,0
2018-01-13T05:03:10.483Z,0
2018-01-13T05:04:10.998Z,0
2018-01-13T05:05:10.760Z,0
2018-01-13T05:06:11.096Z,0
2018-01-13T05:07:10.544Z,0
2018-01-13T05:08:10.804Z,0
2018-01-13T05:09:10.566Z,0
2018-01-13T05:10:10.833Z,0
2018-01-13T05:11:10.858Z,0
2018-01-13T05:12:10.865Z,0
2018-01-13T05:13:10.625Z,0
2018-01-13T05:14:10.898Z,0
2018-01-13T05:15:10.915Z,0
2018-01-13T05:16:10.922Z,0
2018-01-13T05:17:10.942Z,0
2018-01-13T05:18:10.701Z,0
2018-01-13T05:19:11.220Z,0
2018-01-13T05:20:10.725Z,0
2018-01-13T05:21:11.050Z,0
2018-01-13T05:22:10.760Z,0
2018-01-13T05:23:11.280Z,0
2018-01-13T05:24:10.789Z,0
2018-01-13T05:25:11.055Z,0
2018-01-13T05:26:11.072Z,0
2018-01-13T05:27:10.850Z,0
2018-01-13T05:28:10.597Z,0
2018-01-13T05:29:10.863Z,0
2018-01-13T05:30:11.132Z,0
2018-01-13T05:31:11.394Z,0
2018-01-13T05:32:11.158Z,0
2018-01-13T05:33:10.925Z,0
2018-01-13T05:34:11.447Z,0
2018-01-13T05:35:11.459Z,0
2018-01-13T05:36:11.279Z,0
2018-01-13T05:37:10.987Z,0
2018-01-13T05:38:10.994Z,0
2018-01-13T05:39:11.018Z,0
2018-01-13T05:40:11.277Z,0
2018-01-13T05:41:11.290Z,0
2018-01-13T05:42:11.317Z,0
2018-01-13T05:43:11.574Z,0
2018-01-13T05:44:11.347Z,0
2018-01-13T05:45:11.599Z,0
2018-01-13T05:46:10.864Z,0
2018-01-13T05:47:11.129Z,0
2018-01-13T05:48:11.143Z,0
2018-01-13T05:49:11.661Z,0
2018-01-13T05:50:11.175Z,0
2018-01-13T05:51:11.488Z,0
2018-01-13T05:52:11.710Z,0
2018-01-13T05:53:11.473Z,0
2018-01-13T05:54:11.487Z,0
2018-01-13T05:55:11.753Z,0
2018-01-13T05:56:11.541Z,0
2018-01-13T05:57:11.530Z,0
2018-01-13T05:58:11.544Z,0
2018-01-13T05:59:11.056Z,0
2018-01-13T06:00:11.575Z,0
2018-01-13T06:01:11.336Z,0
2018-01-13T06:02:11.860Z,0
2018-01-13T06:03:11.369Z,0
2018-01-13T06:04:11.888Z,0
2018-01-13T06:05:11.899Z,0
2018-01-13T06:06:11.468Z,0
2018-01-13T06:07:11.426Z,0
2018-01-13T06:08:11.691Z,0
2018-01-13T06:09:11.205Z,0
2018-01-13T06:10:11.472Z,0
2018-01-13T06:11:12.001Z,0
2018-01-13T06:12:11.500Z,0
2018-01-13T06:13:11.763Z,0
2018-01-13T06:14:11.548Z,0
2018-01-13T06:15:11.542Z,0
2018-01-13T06:16:11.810Z,0
2018-01-13T06:17:11.575Z,0
2018-01-13T06:18:11.841Z,0
2018-01-13T06:19:12.107Z,0
2018-01-13T06:20:11.868Z,0
2018-01-13T06:21:11.680Z,0
2018-01-13T06:22:11.649Z,0
2018-01-13T06:23:11.923Z,0
2018-01-13T06:24:11.678Z,0
2018-01-13T06:25:11.692Z,0
2018-01-13T06:26:11.705Z,0
2018-01-13T06:27:11.967Z,0
2018-01-13T06:28:11.986Z,0
2018-01-13T06:29:12.250Z,0
2018-01-13T06:30:11.762Z,0
2018-01-13T06:31:11.525Z,0
2018-01-13T06:32:12.041Z,0
2018-01-13T06:33:12.310Z,0
2018-01-13T06:34:11.821Z,0
2018-01-13T06:35:12.085Z,0
2018-01-13T06:36:11.899Z,0
2018-01-13T06:37:12.116Z,0
2018-01-13T06:38:12.142Z,0
2018-01-13T06:39:12.395Z,4
2018-01-13T06:40:12.157Z,4
2018-01-13T06:41:12.168Z,0
2018-01-13T06:42:12.189Z,4
2018-01-13T06:43:12.203Z,4
2018-01-13T06:44:12.465Z,0
2018-01-13T06:45:12.231Z,4
2018-01-13T06:46:12.249Z,4
2018-01-13T06:47:12.265Z,8
2018-01-13T06:48:12.277Z,8
2018-01-13T06:49:11.786Z,4
2018-01-13T06:50:12.308Z,8
2018-01-13T06:51:12.566Z,4
2018-01-13T06:52:11.876Z,12
2018-01-13T06:53:12.349Z,12
2018-01-13T06:54:12.361Z,12
2018-01-13T06:55:12.123Z,16
2018-01-13T06:56:12.394Z,12
2018-01-13T06:57:12.153Z,20
2018-01-13T06:58:12.417Z,20
2018-01-13T06:59:12.184Z,20
2018-01-13T07:00:12.711Z,20
2018-01-13T07:01:12.735Z,20
2018-01-13T07:02:12.806Z,20
2018-01-13T07:03:12.508Z,24
2018-01-13T07:04:12.253Z,24
2018-01-13T07:05:12.265Z,28
2018-01-13T07:06:12.528Z,32
2018-01-13T07:07:12.295Z,32
2018-01-13T07:08:12.309Z,28
2018-01-13T07:09:12.577Z,32
2018-01-13T07:10:12.342Z,32
2018-01-13T07:11:12.368Z,36
2018-01-13T07:12:12.644Z,40
2018-01-13T07:13:12.890Z,36
2018-01-13T07:14:12.653Z,40
2018-01-13T07:15:12.409Z,40
2018-01-13T07:16:12.730Z,44
2018-01-13T07:17:12.437Z,52
2018-01-13T07:18:12.458Z,56
2018-01-13T07:19:12.471Z,56
2018-01-13T07:20:12.485Z,60
2018-01-13T07:21:12.501Z,68
2018-01-13T07:22:12.761Z,68
2018-01-13T07:23:12.830Z,64
2018-01-13T07:24:12.536Z,60
2018-01-13T07:25:12.810Z,56
2018-01-13T07:26:12.817Z,68
2018-01-13T07:27:13.087Z,68
2018-01-13T07:28:12.850Z,68
2018-01-13T07:29:13.115Z,68
2018-01-13T07:30:13.126Z,72
2018-01-13T07:31:12.635Z,84
2018-01-13T07:32:13.152Z,92
2018-01-13T07:33:12.408Z,100
2018-01-13T07:34:12.928Z,108
2018-01-13T07:35:12.694Z,104
2018-01-13T07:36:12.710Z,112
2018-01-13T07:37:12.973Z,116
2018-01-13T07:38:12.811Z,136
2018-01-13T07:39:13.241Z,164
2018-01-13T07:40:12.509Z,180
2018-01-13T07:41:13.034Z,180
2018-01-13T07:42:13.044Z,172
2018-01-13T07:43:12.905Z,176
2018-01-13T07:44:12.566Z,180
2018-01-13T07:45:13.088Z,172
2018-01-13T07:46:12.849Z,172
2018-01-13T07:47:12.864Z,164
2018-01-13T07:48:13.134Z,156
2018-01-13T07:49:13.148Z,156
2018-01-13T07:50:13.159Z,196
2018-01-13T07:51:13.423Z,200
2018-01-13T07:52:13.444Z,192
2018-01-13T07:53:13.582Z,204
2018-01-13T07:54:13.215Z,232
2018-01-13T07:55:13.232Z,232
2018-01-13T07:56:13.239Z,276
2018-01-13T07:57:13.515Z,296
2018-01-13T07:58:13.270Z,296
2018-01-13T07:59:13.031Z,300
2018-01-13T08:00:13.309Z,276
2018-01-13T08:01:13.563Z,268
2018-01-13T08:02:13.336Z,284
2018-01-13T08:03:13.598Z,268
2018-01-13T08:04:13.111Z,264
2018-01-13T08:05:13.383Z,272
2018-01-13T08:06:13.639Z,328
2018-01-13T08:07:13.405Z,384
2018-01-13T08:08:13.473Z,432
2018-01-13T08:09:13.439Z,468
2018-01-13T08:10:13.200Z,480
2018-01-13T08:11:13.212Z,472
2018-01-13T08:12:13.474Z,464
2018-01-13T08:13:13.487Z,468
2018-01-13T08:14:13.502Z,472
2018-01-13T08:15:13.522Z,528
2018-01-13T08:16:13.280Z,584
2018-01-13T08:17:13.561Z,592
2018-01-13T08:18:13.309Z,616
2018-01-13T08:19:13.583Z,616
2018-01-13T08:20:13.845Z,608
2018-01-13T08:21:13.607Z,576
2018-01-13T08:22:13.621Z,552
2018-01-13T08:23:13.736Z,552
2018-01-13T08:24:13.398Z,576
2018-01-13T08:25:13.909Z,600
2018-01-13T08:26:13.682Z,600
2018-01-13T08:27:13.949Z,616
2018-01-13T08:28:13.756Z,636
2018-01-13T08:29:13.469Z,640
2018-01-13T08:30:13.487Z,616
2018-01-13T08:31:13.753Z,608
2018-01-13T08:32:13.512Z,588
2018-01-13T08:33:13.535Z,564
2018-01-13T08:34:13.542Z,552
2018-01-13T08:35:13.557Z,544
2018-01-13T08:36:13.827Z,536
2018-01-13T08:37:13.841Z,516
2018-01-13T08:38:13.907Z,540
2018-01-13T08:39:13.364Z,548
2018-01-13T08:40:13.630Z,552
2018-01-13T08:41:13.897Z,548
2018-01-13T08:42:13.916Z,564
2018-01-13T08:43:13.681Z,560
2018-01-13T08:44:13.942Z,536
2018-01-13T08:45:13.961Z,528
2018-01-13T08:46:14.222Z,552
2018-01-13T08:47:13.983Z,584
2018-01-13T08:48:13.746Z,608
2018-01-13T08:49:13.762Z,596
2018-01-13T08:50:14.032Z,604
2018-01-13T08:51:13.792Z,592
2018-01-13T08:52:14.061Z,584
2018-01-13T08:53:14.127Z,580
2018-01-13T08:54:14.339Z,544
2018-01-13T08:55:14.107Z,548
2018-01-13T08:56:13.869Z,584
2018-01-13T08:57:14.135Z,644
2018-01-13T08:58:13.652Z,752
2018-01-13T08:59:14.159Z,776
2018-01-13T09:00:14.198Z,748
2018-01-13T09:01:14.190Z,836
2018-01-13T09:02:14.210Z,836
2018-01-13T09:03:13.817Z,812
2018-01-13T09:04:13.989Z,764
2018-01-13T09:05:14.513Z,704
2018-01-13T09:06:14.263Z,692
2018-01-13T09:07:14.035Z,692
2018-01-13T09:08:14.585Z,692
2018-01-13T09:09:14.306Z,672
2018-01-13T09:10:14.323Z,716
2018-01-13T09:11:14.337Z,684
2018-01-13T09:12:14.098Z,668
2018-01-13T09:13:13.863Z,640
2018-01-13T09:14:14.133Z,632
2018-01-13T09:15:13.894Z,632
2018-01-13T09:16:14.662Z,620
2018-01-13T09:17:14.726Z,668
2018-01-13T09:18:14.192Z,760
2018-01-13T09:19:14.459Z,772
2018-01-13T09:20:14.221Z,816
2018-01-13T09:21:14.735Z,876
2018-01-13T09:22:14.247Z,952
2018-01-13T09:23:14.306Z,920
2018-01-13T09:24:14.275Z,864
2018-01-13T09:25:14.551Z,816
2018-01-13T09:26:14.303Z,828
2018-01-13T09:27:14.827Z,800
2018-01-13T09:28:14.588Z,744
2018-01-13T09:29:14.360Z,732
2018-01-13T09:30:14.363Z,732
2018-01-13T09:31:14.380Z,796
2018-01-13T09:32:14.654Z,876
2018-01-13T09:33:14.666Z,812
2018-01-13T09:34:14.172Z,828
2018-01-13T09:35:14.692Z,868
2018-01-13T09:36:14.452Z,828
2018-01-13T09:37:14.722Z,808
2018-01-13T09:38:14.778Z,820
2018-01-13T09:39:14.746Z,808
2018-01-13T09:40:14.762Z,824
2018-01-13T09:41:15.102Z,888
2018-01-13T09:42:14.796Z,912
2018-01-13T09:43:15.155Z,924
2018-01-13T09:44:14.565Z,968
2018-01-13T09:45:14.347Z,1008
2018-01-13T09:46:14.372Z,952
2018-01-13T09:47:14.868Z,1004
2018-01-13T09:48:14.891Z,1020
2018-01-13T09:49:14.899Z,1012
2018-01-13T09:50:14.910Z,976
2018-01-13T09:51:14.930Z,988
2018-01-13T09:52:14.802Z,1008
2018-01-13T09:53:15.009Z,952
2018-01-13T09:54:14.724Z,876
2018-01-13T09:55:14.998Z,828
2018-01-13T09:56:15.275Z,820
2018-01-13T09:57:14.765Z,800
2018-01-13T09:58:15.033Z,792
2018-01-13T09:59:15.102Z,780
2018-01-13T10:00:15.065Z,796
2018-01-13T10:01:15.331Z,876
2018-01-13T10:02:14.842Z,896
2018-01-13T10:03:15.310Z,872
2018-01-13T10:04:14.873Z,816
2018-01-13T10:05:15.180Z,768
2018-01-13T10:06:15.152Z,780
2018-01-13T10:07:15.160Z,824
2018-01-13T10:08:15.134Z,812
2018-01-13T10:09:14.953Z,828
2018-01-13T10:10:15.217Z,844
2018-01-13T10:11:14.727Z,824
2018-01-13T10:12:15.266Z,852
2018-01-13T10:13:15.008Z,884
2018-01-13T10:14:15.533Z,844
2018-01-13T10:15:14.786Z,824
2018-01-13T10:16:15.320Z,836
2018-01-13T10:17:15.340Z,884
2018-01-13T10:18:15.336Z,952
2018-01-13T10:19:15.350Z,984
2018-01-13T10:20:15.362Z,980
2018-01-13T10:21:15.127Z,968
2018-01-13T10:22:14.902Z,964
2018-01-13T10:23:15.464Z,992
2018-01-13T10:24:15.426Z,980
2018-01-13T10:25:15.436Z,972
2018-01-13T10:26:15.704Z,968
2018-01-13T10:27:15.472Z,1016
2018-01-13T10:28:15.753Z,1012
2018-01-13T10:29:15.241Z,972
2018-01-13T10:30:15.017Z,976
2018-01-13T10:31:15.275Z,1040
2018-01-13T10:32:15.316Z,1184
2018-01-13T10:33:15.562Z,1320
2018-01-13T10:34:15.067Z,1344
2018-01-13T10:35:15.589Z,1320
2018-01-13T10:36:15.855Z,1236
2018-01-13T10:37:15.871Z,1192
2018-01-13T10:38:15.684Z,1124
2018-01-13T10:39:15.653Z,1056
2018-01-13T10:40:15.533Z,1024
2018-01-13T10:41:15.428Z,1020
2018-01-13T10:42:15.442Z,1044
2018-01-13T10:43:15.457Z,1080
2018-01-13T10:44:15.976Z,1128
2018-01-13T10:45:15.485Z,1112
2018-01-13T10:46:15.754Z,1144
2018-01-13T10:47:15.518Z,1188
2018-01-13T10:48:15.289Z,1208
2018-01-13T10:49:15.549Z,1204
2018-01-13T10:50:16.064Z,1196
2018-01-13T10:51:15.578Z,1176
2018-01-13T10:52:15.844Z,1160
2018-01-13T10:53:15.959Z,1088
2018-01-13T10:54:15.875Z,1024
2018-01-13T10:55:15.634Z,1048
2018-01-13T10:56:15.907Z,1064
2018-01-13T10:57:16.176Z,1088
2018-01-13T10:58:15.938Z,1148
2018-01-13T10:59:16.011Z,1176
2018-01-13T11:00:15.714Z,1156
2018-01-13T11:01:15.984Z,1212
2018-01-13T11:02:15.743Z,1288
2018-01-13T11:03:16.013Z,1440
2018-01-13T11:04:16.021Z,1480
2018-01-13T11:05:15.788Z,1460
2018-01-13T11:06:15.800Z,1364
2018-01-13T11:07:15.818Z,1188
2018-01-13T11:08:15.580Z,1096
2018-01-13T11:09:15.854Z,1084
2018-01-13T11:10:15.860Z,1068
2018-01-13T11:11:15.900Z,1100
2018-01-13T11:12:16.251Z,1104
2018-01-13T11:13:15.909Z,1088
2018-01-13T11:14:16.423Z,1060
2018-01-13T11:15:16.188Z,1036
2018-01-13T11:16:15.947Z,1048
2018-01-13T11:17:16.474Z,1052
2018-01-13T11:18:16.230Z,1068
2018-01-13T11:19:16.703Z,1032
2018-01-13T11:20:16.263Z,1024
2018-01-13T11:21:16.024Z,1040
2018-01-13T11:22:16.036Z,1036
2018-01-13T11:23:16.562Z,1060
2018-01-13T11:24:16.325Z,1164
2018-01-13T11:25:16.336Z,1392
2018-01-13T11:26:16.098Z,1560
2018-01-13T11:27:16.375Z,1340
2018-01-13T11:28:16.378Z,1228
2018-01-13T11:29:16.417Z,1264
2018-01-13T11:30:16.164Z,1188
2018-01-13T11:31:16.428Z,1096
2018-01-13T11:32:16.186Z,1092
2018-01-13T11:33:16.450Z,1116
2018-01-13T11:34:16.717Z,1136
2018-01-13T11:35:15.979Z,1164
2018-01-13T11:36:16.744Z,1196
2018-01-13T11:37:16.308Z,1248
2018-01-13T11:38:16.028Z,1368
2018-01-13T11:39:16.288Z,1468
2018-01-13T11:40:16.569Z,1364
2018-01-13T11:41:16.316Z,1296
2018-01-13T11:42:16.332Z,1280
2018-01-13T11:43:16.850Z,1240
2018-01-13T11:44:16.365Z,1224
2018-01-13T11:45:16.627Z,1232
2018-01-13T11:46:16.396Z,1204
2018-01-13T11:47:16.908Z,1208
2018-01-13T11:48:16.929Z,1188
2018-01-13T11:49:16.438Z,1204
2018-01-13T11:50:16.705Z,1236
2018-01-13T11:51:16.464Z,1252
2018-01-13T11:52:16.991Z,1276
2018-01-13T11:53:16.745Z,1280
2018-01-13T11:54:16.609Z,1272
2018-01-13T11:55:16.523Z,1252
2018-01-13T11:56:16.788Z,1220
2018-01-13T11:57:16.799Z,1220
2018-01-13T11:58:16.564Z,1224
2018-01-13T11:59:17.040Z,1248
2018-01-13T12:00:16.593Z,1276
2018-01-13T12:01:16.863Z,1316
2018-01-13T12:02:16.624Z,1340
2018-01-13T12:03:16.892Z,1380
2018-01-13T12:04:16.503Z,1400
2018-01-13T12:05:16.669Z,1312
2018-01-13T12:06:16.937Z,1228
2018-01-13T12:07:16.951Z,1184
2018-01-13T12:08:16.965Z,1164
2018-01-13T12:09:17.032Z,1144
2018-01-13T12:10:17.249Z,1156
2018-01-13T12:11:17.010Z,1176
2018-01-13T12:12:16.773Z,1196
2018-01-13T12:13:16.785Z,1224
2018-01-13T12:14:16.819Z,1236
2018-01-13T12:15:17.065Z,1244
2018-01-13T12:16:17.085Z,1220
2018-01-13T12:17:17.355Z,1276
2018-01-13T12:18:17.108Z,1296
2018-01-13T12:19:16.877Z,1340
2018-01-13T12:20:17.140Z,1304
2018-01-13T12:21:17.168Z,1236
2018-01-13T12:22:17.421Z,1192
2018-01-13T12:23:17.188Z,1160
2018-01-13T12:24:17.454Z,1136
2018-01-13T12:25:16.976Z,1124
2018-01-13T12:26:17.026Z,1096
2018-01-13T12:27:16.740Z,1052
2018-01-13T12:28:17.004Z,1024
2018-01-13T12:29:17.272Z,1028
2018-01-13T12:30:17.291Z,1044
2018-01-13T12:31:17.555Z,1032
2018-01-13T12:32:17.579Z,1012
2018-01-13T12:33:17.335Z,1008
2018-01-13T12:34:17.601Z,1020
2018-01-13T12:35:17.621Z,1028
2018-01-13T12:36:17.375Z,1056
2018-01-13T12:37:17.400Z,1076
2018-01-13T12:38:17.150Z,1092
2018-01-13T12:39:17.418Z,1112
2018-01-13T12:40:17.442Z,1108
2018-01-13T12:41:17.506Z,1116
2018-01-13T12:42:17.714Z,1160
2018-01-13T12:43:17.231Z,1192
2018-01-13T12:44:17.260Z,1224
2018-01-13T12:45:17.503Z,1240
2018-01-13T12:46:17.521Z,1240
2018-01-13T12:47:17.534Z,1228
2018-01-13T12:48:17.045Z,1204
2018-01-13T12:49:17.564Z,1188
2018-01-13T12:50:17.344Z,1168
2018-01-13T12:51:17.697Z,1132
2018-01-13T12:52:17.610Z,1128
2018-01-13T12:53:17.372Z,1100
2018-01-13T12:54:17.644Z,1080
2018-01-13T12:55:17.658Z,1088
2018-01-13T12:56:17.722Z,1128
2018-01-13T12:57:17.428Z,1176
2018-01-13T12:58:17.697Z,1140
2018-01-13T12:59:17.460Z,1060
2018-01-13T13:00:17.730Z,1024
2018-01-13T13:01:17.747Z,1012
2018-01-13T13:02:18.010Z,1028
2018-01-13T13:03:17.776Z,1012
2018-01-13T13:04:17.537Z,964
2018-01-13T13:05:17.549Z,952
2018-01-13T13:06:17.817Z,972
2018-01-13T13:07:17.839Z,1000
2018-01-13T13:08:17.846Z,1008
2018-01-13T13:09:18.116Z,1004
2018-01-13T13:10:17.876Z,1016
2018-01-13T13:11:17.687Z,1020
2018-01-13T13:12:17.910Z,1012
2018-01-13T13:13:18.196Z,992
2018-01-13T13:14:17.678Z,968
2018-01-13T13:15:17.697Z,944
2018-01-13T13:16:17.961Z,912
2018-01-13T13:17:17.972Z,904
2018-01-13T13:18:17.985Z,924
2018-01-13T13:19:18.382Z,936
2018-01-13T13:20:18.016Z,952
2018-01-13T13:21:17.779Z,952
2018-01-13T13:22:18.041Z,944
2018-01-13T13:23:17.810Z,964
2018-01-13T13:24:17.829Z,956
2018-01-13T13:25:18.086Z,924
2018-01-13T13:26:18.410Z,892
2018-01-13T13:27:17.616Z,876
2018-01-13T13:28:18.129Z,860
2018-01-13T13:29:17.890Z,848
2018-01-13T13:30:18.156Z,824
2018-01-13T13:31:17.918Z,804
2018-01-13T13:32:17.940Z,792
2018-01-13T13:33:18.202Z,776
2018-01-13T13:34:17.964Z,760
2018-01-13T13:35:18.227Z,744
2018-01-13T13:36:18.243Z,728
2018-01-13T13:37:17.754Z,700
2018-01-13T13:38:18.275Z,680
2018-01-13T13:39:18.286Z,656
2018-01-13T13:40:18.302Z,652
2018-01-13T13:41:18.114Z,656
2018-01-13T13:42:18.331Z,648
2018-01-13T13:43:18.344Z,632
2018-01-13T13:44:18.104Z,616
2018-01-13T13:45:18.371Z,620
2018-01-13T13:46:18.486Z,632
2018-01-13T13:47:17.896Z,644
2018-01-13T13:48:18.169Z,628
2018-01-13T13:49:18.677Z,624
2018-01-13T13:50:18.190Z,628
2018-01-13T13:51:18.458Z,628
2018-01-13T13:52:18.467Z,628
2018-01-13T13:53:18.484Z,628
2018-01-13T13:54:18.246Z,648
2018-01-13T13:55:18.263Z,640
2018-01-13T13:56:18.581Z,616
2018-01-13T13:57:18.289Z,596
2018-01-13T13:58:18.302Z,568
2018-01-13T13:59:18.579Z,556
2018-01-13T14:00:18.936Z,556
2018-01-13T14:01:33.697Z,564
2018-01-13T14:02:18.619Z,564
2018-01-13T14:03:18.372Z,564
2018-01-13T14:04:18.643Z,568
2018-01-13T14:05:18.410Z,568
2018-01-13T14:06:18.920Z,572
2018-01-13T14:07:18.430Z,552
2018-01-13T14:08:18.697Z,544
2018-01-13T14:09:18.968Z,552
2018-01-13T14:10:18.987Z,556